createdAt,value
2019-01-25T00:02:29.340Z,-1.6
2019-01-25T00:07:31.693Z,-1.6
2019-01-25T00:12:34.198Z,-1.7
2019-01-25T00:17:36.351Z,-1.7
2019-01-25T00:22:38.608Z,-1.7
2019-01-25T00:27:40.838Z,-1.7
2019-01-25T00:32:43.243Z,-1.7
2019-01-25T00:37:45.434Z,-1.8
2019-01-25T00:42:48.177Z,-1.8
2019-01-25T00:47:50.127Z,-1.8
2019-01-25T00:52:52.470Z,-1.8
2019-01-25T00:57:54.647Z,-1.9
2019-01-25T01:02:56.875Z,-2
2019-01-25T01:07:59.313Z,-2.1
2019-01-25T01:13:01.582Z,-2.3
2019-01-25T01:18:03.814Z,-2.3
2019-01-25T01:23:06.162Z,-2.3
2019-01-25T01:33:10.725Z,-2.4
2019-01-25T01:38:13.082Z,-2.4
2019-01-25T01:43:15.438Z,-2.5
2019-01-25T01:48:17.602Z,-2.5
2019-01-25T01:53:19.807Z,-2.6
2019-01-25T01:58:22.345Z,-2.7
2019-01-25T02:03:24.608Z,-2.7
2019-01-25T02:08:26.877Z,-2.8
2019-01-25T02:13:29.000Z,-2.8
2019-01-25T02:18:31.399Z,-2.8
2019-01-25T02:23:33.656Z,-2.9
2019-01-25T02:28:36.055Z,-2.9
2019-01-25T02:33:38.284Z,-2.9
2019-01-25T02:38:40.583Z,-2.7
2019-01-25T02:43:42.833Z,-2.6
2019-01-25T02:48:47.084Z,-2.4
2019-01-25T02:53:47.557Z,-2.3
2019-01-25T02:58:49.658Z,-2.1
2019-01-25T03:03:52.150Z,-2.2
2019-01-25T03:08:54.233Z,-2.2
2019-01-25T03:13:56.580Z,-2.2
2019-01-25T03:18:58.899Z,-2.2
2019-01-25T03:24:01.276Z,-2.2
2019-01-25T03:29:03.557Z,-2.2
2019-01-25T03:34:05.731Z,-2.1
2019-01-25T03:44:10.372Z,-1.9
2019-01-25T03:49:12.567Z,-1.9
2019-01-25T03:54:14.914Z,-1.8
2019-01-25T03:59:17.164Z,-1.8
2019-01-25T04:04:19.668Z,-1.8
2019-01-25T04:09:21.763Z,-1.8
2019-01-25T04:14:24.129Z,-1.7
2019-01-25T04:19:26.411Z,-1.7
2019-01-25T04:24:28.746Z,-1.6
2019-01-25T04:29:30.954Z,-1.6
2019-01-25T04:34:33.399Z,-1.6
2019-01-25T04:39:35.624Z,-1.5
2019-01-25T04:44:37.819Z,-1.4
2019-01-25T04:49:40.118Z,-1.3
2019-01-25T04:54:42.615Z,-1.2
2019-01-25T04:59:44.800Z,-1.2
2019-01-25T05:04:47.064Z,-1.1
2019-01-25T05:09:49.343Z,-1.1
2019-01-25T05:14:51.719Z,-1
2019-01-25T05:19:53.984Z,-1
2019-01-25T05:24:56.224Z,-1
2019-01-25T05:29:58.487Z,-1
2019-01-25T05:35:00.861Z,-1
2019-01-25T05:40:04.334Z,-1
2019-01-25T05:45:05.413Z,-1
2019-01-25T05:50:07.633Z,-0.9
2019-01-25T05:55:09.960Z,-0.9
2019-01-25T06:00:12.286Z,-0.9
2019-01-25T06:05:14.600Z,-0.8
2019-01-25T06:10:16.890Z,-0.8
2019-01-25T06:15:19.248Z,-0.8
2019-01-25T06:20:21.608Z,-0.7
2019-01-25T06:25:23.715Z,-0.7
2019-01-25T06:30:25.954Z,-0.7
2019-01-25T06:35:28.404Z,-0.6
2019-01-25T06:40:30.705Z,-0.6
2019-01-25T06:45:32.996Z,-0.6
2019-01-25T06:50:35.297Z,-0.5
2019-01-25T06:55:37.577Z,-0.5
2019-01-25T07:00:39.764Z,-0.5
2019-01-25T07:05:42.200Z,-0.4
2019-01-25T07:10:44.436Z,-0.4
2019-01-25T07:15:46.744Z,-0.4
2019-01-25T07:20:48.915Z,-0.4
2019-01-25T07:25:51.224Z,-0.3
2019-01-25T07:30:53.542Z,-0.3
2019-01-25T07:35:57.675Z,-0.3
2019-01-25T07:40:58.172Z,-0.2
2019-01-25T07:46:00.471Z,-0.2
2019-01-25T07:51:02.927Z,-0.2
2019-01-25T07:56:05.121Z,-0.1
2019-01-25T08:01:07.320Z,-0.1
2019-01-25T08:06:09.607Z,-0.1
2019-01-25T08:11:11.918Z,0
2019-01-25T08:16:14.173Z,0
2019-01-25T08:21:16.517Z,0
2019-01-25T08:26:18.825Z,0.1
2019-01-25T08:31:21.093Z,0
2019-01-25T08:36:23.499Z,0.1
2019-01-25T08:41:25.652Z,0.1
2019-01-25T08:46:27.955Z,0.1
2019-01-25T08:51:30.264Z,0.1
2019-01-25T08:56:32.630Z,0.1
2019-01-25T09:01:34.776Z,0.1
2019-01-25T09:06:37.111Z,0.2
2019-01-25T09:11:39.523Z,0.2
2019-01-25T09:16:41.858Z,0.2
2019-01-25T09:21:44.047Z,0.2
2019-01-25T09:26:46.430Z,0.2
2019-01-25T09:31:48.648Z,0.3
2019-01-25T09:36:51.014Z,0.2
2019-01-25T09:41:53.284Z,0.2
2019-01-25T09:46:55.486Z,0.2
2019-01-25T09:51:57.827Z,0.3
2019-01-25T09:57:00.011Z,0.3
2019-01-25T10:02:02.434Z,0.3
2019-01-25T10:07:04.792Z,0.4
2019-01-25T10:12:07.179Z,0.5
2019-01-25T10:17:09.204Z,0.5
2019-01-25T10:22:12.616Z,0.5
2019-01-25T10:27:13.919Z,0.6
2019-01-25T10:32:16.168Z,0.6
2019-01-25T10:37:18.411Z,0.6
2019-01-25T10:42:20.757Z,0.7
2019-01-25T10:47:23.148Z,0.8
2019-01-25T10:52:25.490Z,0.9
2019-01-25T10:57:29.018Z,0.9
2019-01-25T11:02:29.889Z,1
2019-01-25T11:07:32.331Z,1
2019-01-25T11:12:34.532Z,1.1
2019-01-25T11:17:36.804Z,1.1
2019-01-25T11:22:39.102Z,1.2
2019-01-25T11:27:41.410Z,1.2
2019-01-25T11:32:43.711Z,1.3
2019-01-25T11:37:45.960Z,1.4
2019-01-25T11:42:48.279Z,1.4
2019-01-25T11:47:50.485Z,1.4
2019-01-25T11:52:52.938Z,1.5
2019-01-25T11:57:55.163Z,1.5
2019-01-25T12:02:57.400Z,1.6
2019-01-25T12:07:59.680Z,1.5
2019-01-25T12:13:02.017Z,1.5
2019-01-25T12:18:04.280Z,1.5
2019-01-25T12:23:06.611Z,1.5
2019-01-25T12:28:08.810Z,1.5
2019-01-25T12:33:11.259Z,1.5
2019-01-25T12:38:13.508Z,1.5
2019-01-25T12:43:15.724Z,1.5
2019-01-25T12:48:18.151Z,1.5
2019-01-25T12:53:20.399Z,1.5
2019-01-25T12:58:22.669Z,1.5
2019-01-25T13:03:24.889Z,1.4
2019-01-25T13:08:27.234Z,1.4
2019-01-25T13:13:31.692Z,1.4
2019-01-25T13:18:31.808Z,1.4
2019-01-25T13:23:34.139Z,1.4
2019-01-25T13:33:38.771Z,1.5
2019-01-25T13:38:41.006Z,1.4
2019-01-25T13:43:43.429Z,1.5
2019-01-25T13:48:45.639Z,1.5
2019-01-25T13:53:47.870Z,1.4
2019-01-25T13:58:50.235Z,1.5
2019-01-25T14:03:52.506Z,1.5
2019-01-25T14:08:54.835Z,1.5
2019-01-25T14:13:57.122Z,1.4
2019-01-25T14:18:59.351Z,1.5
2019-01-25T14:29:34.016Z,1.4
2019-01-25T14:34:36.514Z,1.5
2019-01-25T14:39:38.654Z,1.5
2019-01-25T14:44:40.972Z,1.5
2019-01-25T14:49:43.167Z,1.5
2019-01-25T14:54:45.507Z,1.5
2019-01-25T14:59:47.803Z,1.5
2019-01-25T15:09:52.372Z,1.5
2019-01-25T15:14:56.611Z,1.5
2019-01-25T15:19:58.097Z,1.5
2019-01-25T15:24:59.243Z,1.5
2019-01-25T15:30:01.706Z,1.5
2019-01-25T15:35:03.844Z,1.5
2019-01-25T15:40:06.183Z,1.5
2019-01-25T15:45:08.534Z,1.5
2019-01-25T15:50:10.789Z,1.5
2019-01-25T15:55:13.094Z,1.5
2019-01-25T16:00:15.394Z,1.5
2019-01-25T16:05:17.676Z,1.6
2019-01-25T16:10:19.872Z,1.6
2019-01-25T16:15:22.195Z,1.6
2019-01-25T16:20:24.578Z,1.6
2019-01-25T16:25:28.823Z,1.6
2019-01-25T16:30:30.917Z,1.6
2019-01-25T16:35:31.397Z,1.7
2019-01-25T16:40:33.649Z,1.7
2019-01-25T16:45:36.129Z,1.8
2019-01-25T16:50:39.747Z,1.8
2019-01-25T16:55:40.545Z,1.8
2019-01-25T17:00:43.028Z,1.8
2019-01-25T17:05:45.195Z,1.8
2019-01-25T17:10:47.451Z,1.8
2019-01-25T17:15:49.778Z,1.8
2019-01-25T17:20:52.130Z,1.8
2019-01-25T17:25:54.324Z,1.8
2019-01-25T17:30:56.549Z,1.8
2019-01-25T17:35:58.915Z,1.8
2019-01-25T17:41:01.252Z,1.8
2019-01-25T17:46:03.541Z,1.8
2019-01-25T17:51:05.761Z,1.8
2019-01-25T17:56:08.271Z,1.8
2019-01-25T18:01:10.454Z,1.8
2019-01-25T18:06:12.667Z,1.9
2019-01-25T18:11:14.963Z,1.8
2019-01-25T18:16:17.329Z,1.8
2019-01-25T18:21:19.560Z,1.9
2019-01-25T18:26:23.845Z,1.9
2019-01-25T18:31:24.158Z,2
2019-01-25T18:36:27.666Z,2
2019-01-25T18:41:30.218Z,2
2019-01-25T18:46:31.096Z,2.1
2019-01-25T18:51:33.424Z,2.1
2019-01-25T18:56:35.678Z,2.1
2019-01-25T19:01:37.927Z,2.2
2019-01-25T19:06:40.178Z,2.1
2019-01-25T19:11:42.511Z,2.2
2019-01-25T19:16:46.143Z,2.2
2019-01-25T19:21:51.565Z,2.3
2019-01-25T19:26:49.509Z,2.3
2019-01-25T19:31:51.705Z,2.3
2019-01-25T19:36:54.041Z,2.3
2019-01-25T19:41:56.266Z,2.4
2019-01-25T19:46:58.625Z,2.5
2019-01-25T19:52:00.873Z,2.5
2019-01-25T19:57:03.298Z,2.5
2019-01-25T20:02:05.431Z,2.6
2019-01-25T20:07:07.705Z,2.6
2019-01-25T20:12:11.503Z,2.7
2019-01-25T20:17:13.482Z,2.8
2019-01-25T20:22:14.619Z,2.8
2019-01-25T20:27:16.927Z,2.9
2019-01-25T20:32:19.278Z,3
2019-01-25T20:37:21.622Z,3.1
2019-01-25T20:42:23.741Z,3.1
2019-01-25T20:47:26.104Z,3.2
2019-01-25T20:52:28.342Z,3.2
2019-01-25T20:57:30.775Z,3.3
2019-01-25T21:02:32.936Z,3.3
2019-01-25T21:07:35.241Z,3.4
2019-01-25T21:12:37.653Z,3.4
2019-01-25T21:17:40.067Z,3.4
2019-01-25T21:22:42.143Z,3.5
2019-01-25T21:27:44.435Z,3.5
2019-01-25T21:32:46.699Z,3.6
2019-01-25T21:37:50.520Z,3.7
2019-01-25T21:42:51.379Z,3.7
2019-01-25T21:47:53.523Z,3.8
2019-01-25T21:52:55.933Z,3.8
2019-01-25T21:58:05.202Z,3.9
2019-01-25T22:03:02.358Z,3.9
2019-01-25T22:13:05.028Z,4
2019-01-25T22:18:07.448Z,4
2019-01-25T22:23:09.721Z,4.1
2019-01-25T22:28:11.995Z,4.2
2019-01-25T22:33:14.244Z,4.2
2019-01-25T22:43:18.892Z,4.4
2019-01-25T22:48:21.131Z,4.4
2019-01-25T22:53:23.523Z,4.5
2019-01-25T22:58:25.844Z,4.5
2019-01-25T23:03:27.995Z,4.6
2019-01-25T23:08:30.433Z,4.5
2019-01-25T23:13:32.635Z,4.6
2019-01-25T23:23:37.193Z,4.6
2019-01-25T23:28:39.680Z,4.7
2019-01-25T23:33:41.836Z,4.7
2019-01-25T23:38:44.037Z,4.8
2019-01-25T23:43:46.383Z,4.9
2019-01-25T23:48:48.748Z,4.9
2019-01-25T23:53:50.971Z,4.9
2019-01-25T23:58:53.287Z,5
